Time;durP1;ratioP1;P1;durP2;ratioP2;P2;SDS_P1;SDS_P2;PMS_P1;PMS_P2;Temp;Humidity;BMP_temperature;BMP_pressure;BME280_temperature;BME280_humidity;BME280_pressure;Samples;Min_cycle;Max_cycle;Signal;HPM_P1;HPM_P2
2021/01/21 00:00:32;;;;;;;;;;;;;;;20.20;30.24;101540.66;5039258;28;752;-54
2021/01/21 00:02:58;;;;;;;;;;;;;;;19.57;31.27;101539.06;5038827;28;1045;-55
2021/01/21 00:05:23;;;;;;;;;;;;;;;20.04;30.52;101537.13;5039123;28;966;-54
2021/01/21 00:08:22;;;;;;;;;;;;;;;20.71;29.43;101536.13;5038797;28;1905;-55
2021/01/21 00:10:48;;;;;;;;;;;;;;;20.46;29.91;101544.19;5038766;28;796;-55
2021/01/21 00:13:13;;;;;;;;;;;;;;;20.13;30.25;101553.94;5038971;28;796;-54
2021/01/21 00:15:39;;;;;;;;;;;;;;;19.88;30.68;101544.59;5039281;28;773;-56
2021/01/21 00:18:04;;;;;;;;;;;;;;;19.59;31.42;101544.31;5048371;28;1198;-56
2021/01/21 00:20:30;;;;;;;;;;;;;;;20.46;29.86;101544.19;5058862;28;771;-55
2021/01/21 00:22:55;;;;;;;;;;;;;;;20.78;29.25;101545.75;5048261;28;1006;-56
2021/01/21 00:26:01;;;;;;;;;;;;;;;20.41;29.97;101538.72;5038292;28;1045;-56
2021/01/21 00:28:35;;;;;;;;;;;;;;;19.78;31.04;101547.31;5038772;28;788;-55
2021/01/21 00:31:01;;;;;;;;;;;;;;;19.84;31.17;101560.06;5020826;28;781;-53
2021/01/21 00:33:26;;;;;;;;;;;;;;;20.57;29.67;101550.53;5038391;28;753;-53
2021/01/21 00:35:51;;;;;;;;;;;;;;;20.37;29.92;101545.91;5038564;28;796;-47
2021/01/21 00:38:17;;;;;;;;;;;;;;;20.19;30.32;101547.31;5038223;28;955;-56
2021/01/21 00:40:42;;;;;;;;;;;;;;;19.92;30.73;101547.63;5037834;28;744;-54
2021/01/21 00:43:08;;;;;;;;;;;;;;;19.66;31.36;101553.13;5038407;28;891;-46
2021/01/21 00:45:33;;;;;;;;;;;;;;;20.49;29.82;101554.69;5020885;28;1194;-56
2021/01/21 00:47:59;;;;;;;;;;;;;;;20.97;28.98;101545.09;5038247;28;1980;-56
2021/01/21 00:50:24;;;;;;;;;;;;;;;20.19;30.16;101555.59;5020929;28;1341;-55
2021/01/21 00:52:50;;;;;;;;;;;;;;;20.15;30.34;101543.47;5020462;28;1263;-52
2021/01/21 00:55:25;;;;;;;;;;;;;;;19.45;31.67;101546.78;5020427;28;1214;-48
2021/01/21 00:57:50;;;;;;;;;;;;;;;20.20;30.52;101546.19;5038253;28;784;-56
2021/01/21 01:00:16;;;;;;;;;;;;;;;20.79;29.34;101547.44;5038417;28;792;-55
2021/01/21 01:02:47;;;;;;;;;;;;;;;20.24;30.44;101539.00;5037975;28;808;-55
2021/01/21 01:05:13;;;;;;;;;;;;;;;20.07;30.66;101544.03;5037203;28;1127;-55
2021/01/21 01:07:44;;;;;;;;;;;;;;;19.39;31.86;101540.44;5019713;28;1983;-52
2021/01/21 01:10:12;;;;;;;;;;;;;;;19.96;30.83;101540.44;5036846;28;1260;-48
2021/01/21 01:12:37;;;;;;;;;;;;;;;20.67;29.51;101538.59;5038086;28;807;-49
2021/01/21 01:15:04;;;;;;;;;;;;;;;20.41;30.10;101540.63;5020241;28;1118;-55
2021/01/21 01:17:30;;;;;;;;;;;;;;;20.10;30.40;101538.75;5025366;28;1120;-56
2021/01/21 01:19:56;;;;;;;;;;;;;;;19.63;31.38;101537.94;5039749;28;835;-57
2021/01/21 01:22:21;;;;;;;;;;;;;;;19.90;30.79;101536.88;5052152;28;1021;-56
2021/01/21 01:28:25;;;;;;;;;;;;;;;20.35;30.06;101535.09;5037576;28;633;-49
2021/01/21 01:30:50;;;;;;;;;;;;;;;20.27;30.29;101529.34;5037400;28;887;-54
2021/01/21 01:33:20;;;;;;;;;;;;;;;19.50;31.36;101535.72;5020075;28;1309;-56
2021/01/21 01:35:45;;;;;;;;;;;;;;;20.24;30.25;101525.19;5036086;28;765;-54
2021/01/21 01:38:13;;;;;;;;;;;;;;;20.84;29.47;101516.97;5037042;28;1026;-56
2021/01/21 01:40:39;;;;;;;;;;;;;;;20.34;30.29;101514.13;5020076;28;1210;-46
2021/01/21 01:43:04;;;;;;;;;;;;;;;20.17;30.49;101511.72;5037007;28;740;-55
2021/01/21 01:45:30;;;;;;;;;;;;;;;19.68;31.37;101512.28;5037092;28;820;-56
2021/01/21 01:47:57;;;;;;;;;;;;;;;19.86;30.97;101510.09;5019875;28;1906;-56
2021/01/21 01:50:44;;;;;;;;;;;;;;;20.68;29.53;101513.47;5034222;28;1003;-55
2021/01/21 01:53:13;;;;;;;;;;;;;;;20.47;29.97;101512.72;5018566;28;971;-54
2021/01/21 01:55:52;;;;;;;;;;;;;;;20.22;30.21;101507.28;5019794;28;1034;-55
2021/01/21 01:58:33;;;;;;;;;;;;;;;19.55;31.61;101507.34;5019184;28;1145;-46
2021/01/21 02:01:13;;;;;;;;;;;;;;;20.08;30.54;101505.09;5019436;28;1360;-47
2021/01/21 02:03:39;;;;;;;;;;;;;;;20.78;29.31;101509.84;5019227;28;776;-46
2021/01/21 02:06:25;;;;;;;;;;;;;;;20.44;29.81;101507.75;5005765;28;1914;-55
2021/01/21 02:08:56;;;;;;;;;;;;;;;20.13;30.58;101501.47;5018882;28;1115;-47
2021/01/21 02:11:25;;;;;;;;;;;;;;;19.76;30.94;101497.94;5035777;28;1623;-47
2021/01/21 02:14:04;;;;;;;;;;;;;;;20.03;30.63;101504.28;5019268;28;1311;-55
2021/01/21 02:16:48;;;;;;;;;;;;;;;20.77;29.54;101499.88;5003016;28;1128;-46
2021/01/21 02:19:34;;;;;;;;;;;;;;;20.42;29.96;101504.44;5055928;28;1335;-54
2021/01/21 02:22:23;;;;;;;;;;;;;;;19.99;30.69;101491.03;5054100;28;1021;-57
2021/01/21 02:28:27;;;;;;;;;;;;;;;20.40;30.09;101498.38;5036880;28;1969;-56
2021/01/21 02:30:53;;;;;;;;;;;;;;;21.02;29.18;101507.19;5036248;28;776;-50
2021/01/21 02:33:19;;;;;;;;;;;;;;;20.30;30.12;101502.00;5018539;28;1292;-57
2021/01/21 02:35:45;;;;;;;;;;;;;;;20.20;30.55;101502.00;5018845;28;1214;-56
2021/01/21 02:38:12;;;;;;;;;;;;;;;19.52;31.74;101511.47;5018353;28;1412;-46
2021/01/21 02:40:39;;;;;;;;;;;;;;;19.79;31.00;101513.97;5035303;28;1158;-55
2021/01/21 02:43:14;;;;;;;;;;;;;;;20.62;29.94;101514.59;5020315;28;783;-56
2021/01/21 02:45:45;;;;;;;;;;;;;;;20.29;30.28;101521.63;5018345;28;1227;-56
2021/01/21 02:51:52;;;;;;;;;;;;;;;19.59;31.42;101525.81;5035810;28;956;-51
2021/01/21 02:54:26;;;;;;;;;;;;;;;20.48;29.95;101536.47;5019119;28;1362;-56
2021/01/21 02:56:57;;;;;;;;;;;;;;;20.50;29.76;101537.00;5018756;28;1171;-55
2021/01/21 02:59:23;;;;;;;;;;;;;;;20.01;30.82;101532.16;5018536;28;1298;-50
2021/01/21 03:01:49;;;;;;;;;;;;;;;19.58;31.45;101534.38;5002368;28;1242;-56
2021/01/21 03:04:15;;;;;;;;;;;;;;;19.80;30.92;101532.19;5003977;28;1251;-55
2021/01/21 03:06:41;;;;;;;;;;;;;;;20.60;29.75;101541.66;5022441;28;1906;-56
2021/01/21 03:09:19;;;;;;;;;;;;;;;20.45;29.88;101537.00;5007769;28;2376;-55
2021/01/21 03:11:45;;;;;;;;;;;;;;;20.16;30.46;101540.41;5022729;28;1104;-54
2021/01/21 03:14:10;;;;;;;;;;;;;;;19.59;31.57;101536.03;5039923;28;860;-56
2021/01/21 03:16:43;;;;;;;;;;;;;;;20.13;30.45;101545.66;5022463;28;1360;-50
2021/01/21 03:19:11;;;;;;;;;;;;;;;20.79;29.36;101539.13;5040947;28;1235;-56
2021/01/21 03:21:36;;;;;;;;;;;;;;;20.33;30.11;101539.28;5041889;28;1245;-55
2021/01/21 03:24:07;;;;;;;;;;;;;;;20.05;30.71;101544.31;5022268;28;1277;-56
2021/01/21 03:26:43;;;;;;;;;;;;;;;19.52;31.60;101535.44;5022445;28;1981;-46
2021/01/21 03:29:29;;;;;;;;;;;;;;;20.02;30.74;101546.78;5021920;28;1194;-56
2021/01/21 03:31:56;;;;;;;;;;;;;;;20.71;29.43;101545.25;5039768;28;764;-56
2021/01/21 03:34:27;;;;;;;;;;;;;;;20.29;30.21;101544.53;5022034;28;1391;-56
2021/01/21 03:37:01;;;;;;;;;;;;;;;20.15;30.40;101546.22;5021562;28;1107;-55
2021/01/21 03:39:27;;;;;;;;;;;;;;;19.66;31.42;101544.84;5021937;28;1058;-56
2021/01/21 03:42:07;;;;;;;;;;;;;;;19.83;31.00;101550.13;5022215;28;1513;-55
2021/01/21 03:44:49;;;;;;;;;;;;;;;20.68;29.81;101552.16;5021510;28;1565;-56
2021/01/21 03:47:14;;;;;;;;;;;;;;;20.95;29.08;101544.59;5039471;28;1902;-53
2021/01/21 03:49:58;;;;;;;;;;;;;;;20.06;30.53;101540.41;5039466;28;792;-55
2021/01/21 03:52:25;;;;;;;;;;;;;;;19.90;30.88;101542.38;5038552;28;1018;-51
2021/01/21 03:55:03;;;;;;;;;;;;;;;19.78;31.16;101548.16;5022003;28;1373;-53
2021/01/21 03:57:29;;;;;;;;;;;;;;;20.59;29.83;101553.00;5038299;28;1139;-53
2021/01/21 04:00:13;;;;;;;;;;;;;;;20.48;29.84;101550.28;5038979;28;776;-56
2021/01/21 04:02:44;;;;;;;;;;;;;;;20.04;30.57;101545.41;5039182;28;744;-48
2021/01/21 04:05:20;;;;;;;;;;;;;;;19.75;31.39;101553.41;5021612;28;1107;-57
2021/01/21 04:07:46;;;;;;;;;;;;;;;20.32;30.24;101555.00;5037489;28;1980;-55
2021/01/21 04:10:12;;;;;;;;;;;;;;;20.84;29.47;101555.66;5021571;28;1123;-55
2021/01/21 04:12:51;;;;;;;;;;;;;;;20.25;30.42;101559.19;5020963;28;1373;-56
2021/01/21 04:15:16;;;;;;;;;;;;;;;20.06;30.64;101562.50;5020117;28;1112;-55
2021/01/21 04:17:45;;;;;;;;;;;;;;;19.60;31.54;101557.81;5027903;28;1985;-54
2021/01/21 04:20:10;;;;;;;;;;;;;;;20.26;30.35;101566.34;5041196;28;1338;-56
2021/01/21 04:22:36;;;;;;;;;;;;;;;20.84;29.21;101568.69;5040365;28;1199;-56
2021/01/21 04:25:02;;;;;;;;;;;;;;;20.21;30.63;101569.94;5040690;28;1825;-56
2021/01/21 04:27:50;;;;;;;;;;;;;;;20.06;30.86;101573.56;5056489;28;1977;-53
2021/01/21 04:30:18;;;;;;;;;;;;;;;19.46;31.85;101578.75;5056318;28;1253;-57
2021/01/21 04:32:44;;;;;;;;;;;;;;;20.12;30.75;101577.97;5056319;28;892;-56
2021/01/21 04:35:12;;;;;;;;;;;;;;;20.76;29.69;101581.16;5039605;28;1930;-53
2021/01/21 04:37:41;;;;;;;;;;;;;;;20.63;29.68;101576.19;5047985;28;1273;-53
2021/01/21 04:40:16;;;;;;;;;;;;;;;20.33;30.25;101586.22;5020035;28;1162;-53
2021/01/21 04:42:44;;;;;;;;;;;;;;;19.88;31.20;101587.91;5019580;28;1120;-54
2021/01/21 04:45:10;;;;;;;;;;;;;;;19.69;31.50;101590.38;5036555;28;748;-55
2021/01/21 04:51:16;;;;;;;;;;;;;;;20.42;30.08;101589.25;5036198;28;634;-54
2021/01/21 04:53:48;;;;;;;;;;;;;;;20.17;30.33;101586.25;5036947;28;1143;-58
2021/01/21 04:56:25;;;;;;;;;;;;;;;19.56;31.71;101591.72;5023249;28;1408;-62
2021/01/21 04:59:11;;;;;;;;;;;;;;;20.17;30.78;101586.25;5046749;28;1175;-67
2021/01/21 05:01:42;;;;;;;;;;;;;;;20.79;29.75;101590.81;5022672;28;1452;-56
2021/01/21 05:04:11;;;;;;;;;;;;;;;20.16;30.37;101592.88;5045457;28;1254;-57
2021/01/21 05:07:03;;;;;;;;;;;;;;;19.91;31.06;101592.88;5043225;28;1913;-59
2021/01/21 05:09:30;;;;;;;;;;;;;;;19.37;32.11;101595.03;5019804;28;1162;-58
2021/01/21 05:11:55;;;;;;;;;;;;;;;20.13;30.80;101576.88;5003612;28;1283;-60
2021/01/21 05:14:27;;;;;;;;;;;;;;;20.80;29.75;101581.41;5038250;28;850;-62
2021/01/21 05:17:04;;;;;;;;;;;;;;;19.97;30.90;101587.09;5039705;28;1179;-60
2021/01/21 05:19:46;;;;;;;;;;;;;;;19.69;31.21;101577.41;5057556;28;633;-60
2021/01/21 05:22:29;;;;;;;;;;;;;;;19.25;32.10;101581.50;5050619;28;1010;-62
2021/01/21 05:25:18;;;;;;;;;;;;;;;20.37;30.25;101586.47;5018571;28;1110;-52
2021/01/21 05:28:03;;;;;;;;;;;;;;;20.34;30.39;101585.09;5037242;28;1914;-59
2021/01/21 05:30:59;;;;;;;;;;;;;;;19.92;31.05;101589.03;5037199;28;1184;-52
2021/01/21 05:33:35;;;;;;;;;;;;;;;19.65;31.74;101592.84;5005132;28;1175;-61
2021/01/21 05:36:09;;;;;;;;;;;;;;;19.94;31.20;101589.59;5019725;28;645;-57
2021/01/21 05:38:55;;;;;;;;;;;;;;;20.76;29.65;101591.38;5004352;28;1398;-58
2021/01/21 05:41:41;;;;;;;;;;;;;;;21.25;28.98;101598.91;5037332;28;1065;-59
2021/01/21 05:44:18;;;;;;;;;;;;;;;20.50;30.17;101597.78;5037147;28;822;-59
2021/01/21 05:46:56;;;;;;;;;;;;;;;20.31;30.51;101596.72;5019871;28;2036;-62
2021/01/21 05:49:24;;;;;;;;;;;;;;;19.63;31.65;101598.66;5035345;28;816;-58
2021/01/21 05:51:55;;;;;;;;;;;;;;;19.70;31.50;101606.66;5019677;28;1234;-55
2021/01/21 05:54:27;;;;;;;;;;;;;;;20.51;29.87;101604.97;5036289;28;1118;-58
2021/01/21 05:56:58;;;;;;;;;;;;;;;20.39;30.36;101612.72;5019019;28;1612;-56
2021/01/21 05:59:24;;;;;;;;;;;;;;;20.11;30.79;101614.97;5036831;28;782;-58
2021/01/21 06:01:57;;;;;;;;;;;;;;;19.52;31.79;101609.94;5036068;28;1142;-56
2021/01/21 06:04:29;;;;;;;;;;;;;;;19.74;31.39;101613.28;5019180;28;1128;-53
2021/01/21 06:06:55;;;;;;;;;;;;;;;20.50;30.19;101617.13;5036634;28;1965;-54
2021/01/21 06:09:48;;;;;;;;;;;;;;;21.02;29.09;101612.28;5019109;28;1185;-59
2021/01/21 06:12:14;;;;;;;;;;;;;;;20.17;30.75;101618.56;5036266;28;761;-55
2021/01/21 06:14:40;;;;;;;;;;;;;;;20.06;30.74;101617.72;5036698;28;749;-58
2021/01/21 06:17:06;;;;;;;;;;;;;;;19.38;31.87;101618.75;5020537;28;1328;-56
2021/01/21 06:19:42;;;;;;;;;;;;;;;20.32;30.30;101626.81;5038498;28;1254;-52
2021/01/21 06:22:11;;;;;;;;;;;;;;;20.82;29.55;101623.44;5036428;28;1240;-59
2021/01/21 06:24:57;;;;;;;;;;;;;;;20.08;30.57;101623.81;5038522;28;1230;-57
2021/01/21 06:27:23;;;;;;;;;;;;;;;19.83;31.07;101622.69;5054517;28;1914;-57
2021/01/21 06:29:48;;;;;;;;;;;;;;;19.44;31.98;101628.69;5023228;28;1121;-58
2021/01/21 06:32:14;;;;;;;;;;;;;;;20.21;30.63;101625.19;5038115;28;904;-57
2021/01/21 06:34:40;;;;;;;;;;;;;;;20.77;29.65;101623.44;5056091;28;783;-53
2021/01/21 06:37:11;;;;;;;;;;;;;;;20.02;30.64;101630.44;5049780;28;839;-59
2021/01/21 06:39:37;;;;;;;;;;;;;;;19.76;31.15;101629.56;5044179;28;829;-60
2021/01/21 06:42:02;;;;;;;;;;;;;;;19.31;32.01;101626.44;5055393;28;1015;-57
2021/01/21 06:44:28;;;;;;;;;;;;;;;20.15;30.58;101632.63;5056147;28;827;-59
2021/01/21 06:46:53;;;;;;;;;;;;;;;20.68;29.59;101640.59;5037876;28;1913;-60
2021/01/21 06:49:19;;;;;;;;;;;;;;;20.14;30.78;101636.50;5056499;28;784;-57
2021/01/21 06:51:48;;;;;;;;;;;;;;;20.15;30.69;101632.63;5037840;28;1030;-56
2021/01/21 06:54:13;;;;;;;;;;;;;;;19.58;31.77;101645.53;5018498;28;846;-61
2021/01/21 06:56:48;;;;;;;;;;;;;;;19.46;32.00;101637.53;5018146;28;918;-60
2021/01/21 06:59:55;;;;;;;;;;;;;;;20.52;30.18;101642.53;5053367;28;641;-59
2021/01/21 07:02:39;;;;;;;;;;;;;;;20.47;29.87;101650.84;5055296;28;829;-59
2021/01/21 07:05:11;;;;;;;;;;;;;;;20.30;30.28;101644.78;5055809;28;733;-62
2021/01/21 07:11:12;;;;;;;;;;;;;;;20.14;30.59;101635.69;5046527;28;868;-59
2021/01/21 07:13:37;;;;;;;;;;;;;;;20.74;29.59;101646.94;5055731;28;748;-60
2021/01/21 07:16:03;;;;;;;;;;;;;;;20.34;30.22;101634.81;5037651;28;892;-62
2021/01/21 07:18:35;;;;;;;;;;;;;;;20.07;30.66;101644.22;5055553;28;1231;-52
2021/01/21 07:21:02;;;;;;;;;;;;;;;19.75;31.34;101650.81;5055671;28;811;-60
2021/01/21 07:23:38;;;;;;;;;;;;;;;19.78;31.32;101655.81;5040954;28;1156;-59
2021/01/21 07:26:22;;;;;;;;;;;;;;;20.65;29.96;101659.63;5035945;28;1910;-61
2021/01/21 07:29:00;;;;;;;;;;;;;;;20.26;30.49;101654.72;5017899;28;884;-60
2021/01/21 07:31:25;;;;;;;;;;;;;;;20.09;30.78;101660.53;5035667;28;801;-61
2021/01/21 07:34:10;;;;;;;;;;;;;;;19.68;31.34;101655.75;5035510;28;808;-60
2021/01/21 07:36:35;;;;;;;;;;;;;;;19.87;31.40;101658.06;5035676;28;820;-62
2021/01/21 07:39:00;;;;;;;;;;;;;;;20.65;29.87;101651.34;5035775;28;998;-62
2021/01/21 07:41:41;;;;;;;;;;;;;;;20.75;29.84;101650.50;5017592;28;839;-57
2021/01/21 07:44:07;;;;;;;;;;;;;;;20.24;30.94;101651.41;5035788;28;757;-59
2021/01/21 07:46:32;;;;;;;;;;;;;;;20.09;31.37;101653.09;5035672;28;1910;-58
2021/01/21 07:52:04;;;;;;;;;;;;;;;19.96;31.66;101648.09;5055865;28;946;-60
2021/01/21 07:54:30;;;;;;;;;;;;;;;20.73;30.29;101650.81;5039431;28;781;-61
2021/01/21 07:56:56;;;;;;;;;;;;;;;20.32;30.92;101639.81;5038773;28;820;-62
2021/01/21 07:59:21;;;;;;;;;;;;;;;20.21;30.85;101640.94;5039222;28;765;-63
2021/01/21 08:01:56;;;;;;;;;;;;;;;19.80;31.86;101641.75;5039094;28;757;-57
2021/01/21 08:04:22;;;;;;;;;;;;;;;19.67;31.94;101643.09;5039112;28;783;-57
2021/01/21 08:06:57;;;;;;;;;;;;;;;20.67;30.39;101647.22;5038858;28;1914;-60
2021/01/21 08:09:23;;;;;;;;;;;;;;;20.29;30.85;101645.91;5038960;28;783;-57
2021/01/21 08:11:49;;;;;;;;;;;;;;;20.42;30.55;101647.25;5039105;28;909;-60
2021/01/21 08:14:15;;;;;;;;;;;;;;;19.88;31.36;101648.66;5021309;28;907;-59
2021/01/21 08:16:40;;;;;;;;;;;;;;;19.35;32.57;101651.53;5039136;28;892;-54
2021/01/21 08:19:06;;;;;;;;;;;;;;;20.57;30.29;101649.19;5056499;28;1214;-57
2021/01/21 08:21:32;;;;;;;;;;;;;;;20.83;29.89;101652.72;5041302;28;755;-60
2021/01/21 08:23:57;;;;;;;;;;;;;;;20.29;30.67;101645.91;5039798;28;1149;-57
2021/01/21 08:26:32;;;;;;;;;;;;;;;20.29;30.65;101645.91;5038063;28;1922;-56
2021/01/21 08:29:01;;;;;;;;;;;;;;;19.40;32.33;101655.16;5039145;28;749;-60
2021/01/21 08:31:37;;;;;;;;;;;;;;;20.37;30.82;101650.00;5020386;28;821;-60
2021/01/21 08:34:04;;;;;;;;;;;;;;;21.06;29.33;101644.91;5038001;28;804;-55
2021/01/21 08:36:29;;;;;;;;;;;;;;;20.31;30.84;101651.97;5038227;28;752;-57
2021/01/21 08:38:55;;;;;;;;;;;;;;;20.32;30.64;101648.09;5045505;28;959;-60
2021/01/21 08:41:20;;;;;;;;;;;;;;;19.53;32.08;101648.31;5058390;28;758;-53
2021/01/21 08:43:46;;;;;;;;;;;;;;;20.05;31.15;101645.63;5041280;28;723;-58
2021/01/21 08:46:18;;;;;;;;;;;;;;;20.87;29.76;101644.69;5058146;28;1979;-50
2021/01/21 08:48:44;;;;;;;;;;;;;;;20.46;30.56;101635.34;5057971;28;759;-57
2021/01/21 08:51:26;;;;;;;;;;;;;;;20.32;30.54;101637.88;5058209;28;740;-57
2021/01/21 08:53:51;;;;;;;;;;;;;;;19.63;31.77;101631.75;5040332;28;939;-57
2021/01/21 08:56:41;;;;;;;;;;;;;;;20.03;31.07;101634.84;5038544;28;733;-61
2021/01/21 08:59:39;;;;;;;;;;;;;;;20.70;29.85;101628.44;5037774;28;685;-60
2021/01/21 09:02:04;;;;;;;;;;;;;;;20.26;30.67;101627.09;5037225;28;776;-59
2021/01/21 09:04:31;;;;;;;;;;;;;;;20.07;30.96;101622.16;5038137;28;890;-67
2021/01/21 09:06:56;;;;;;;;;;;;;;;19.36;32.47;101618.19;5037429;28;1987;-59
2021/01/21 09:09:48;;;;;;;;;;;;;;;20.30;30.75;101617.16;5037744;28;820;-66
2021/01/21 09:12:14;;;;;;;;;;;;;;;20.71;29.82;101619.06;5034911;28;1516;-60
2021/01/21 09:14:40;;;;;;;;;;;;;;;20.54;30.13;101613.78;5038159;28;813;-60
2021/01/21 09:17:11;;;;;;;;;;;;;;;20.17;30.71;101608.34;5039037;28;1135;-60
2021/01/21 09:19:37;;;;;;;;;;;;;;;19.20;32.43;101606.28;5057547;28;792;-58
2021/01/21 09:22:03;;;;;;;;;;;;;;;20.52;30.43;101601.09;5054545;28;971;-60
2021/01/21 09:24:29;;;;;;;;;;;;;;;20.79;29.68;101599.09;5037860;28;1205;-61
2021/01/21 09:27:31;;;;;;;;;;;;;;;20.26;30.82;101593.97;5037640;28;1899;-61
2021/01/21 09:29:57;;;;;;;;;;;;;;;19.88;31.16;101583.25;5037668;28;804;-59
2021/01/21 09:32:23;;;;;;;;;;;;;;;19.45;32.23;101591.72;5037082;28;820;-54
2021/01/21 09:34:51;;;;;;;;;;;;;;;20.66;30.06;101586.69;5037753;28;815;-59
2021/01/21 09:37:17;;;;;;;;;;;;;;;20.44;30.08;101582.34;5037258;28;1007;-65
2021/01/21 09:39:42;;;;;;;;;;;;;;;20.39;30.59;101582.34;5047240;28;776;-61
2021/01/21 09:42:08;;;;;;;;;;;;;;;19.96;31.13;101579.09;5057281;28;765;-49
2021/01/21 09:44:33;;;;;;;;;;;;;;;19.69;31.77;101571.88;5057267;28;803;-55
2021/01/21 09:46:58;;;;;;;;;;;;;;;20.85;29.74;101573.09;5056524;28;2008;-55
2021/01/21 09:49:24;;;;;;;;;;;;;;;20.70;29.88;101571.22;5056452;28;963;-58
2021/01/21 09:51:50;;;;;;;;;;;;;;;20.32;30.65;101573.53;5055564;28;942;-55
2021/01/21 09:54:15;;;;;;;;;;;;;;;19.83;31.29;101561.97;5064557;28;1199;-55
2021/01/21 09:56:47;;;;;;;;;;;;;;;19.49;32.15;101565.25;5056950;28;756;-56
2021/01/21 09:59:12;;;;;;;;;;;;;;;20.66;30.19;101564.56;5056981;28;792;-57
2021/01/21 10:01:37;;;;;;;;;;;;;;;20.65;29.92;101563.75;5056592;28;816;-56
2021/01/21 10:04:03;;;;;;;;;;;;;;;20.17;30.98;101553.13;5039226;28;777;-57
2021/01/21 10:06:28;;;;;;;;;;;;;;;19.66;31.82;101539.34;5056609;28;1910;-55
2021/01/21 10:08:57;;;;;;;;;;;;;;;19.60;32.01;101540.44;5037895;28;970;-58
2021/01/21 10:11:22;;;;;;;;;;;;;;;20.66;30.18;101531.41;5036767;28;749;-57
2021/01/21 10:13:48;;;;;;;;;;;;;;;20.94;29.34;101534.63;5035766;28;769;-59
2021/01/21 10:16:13;;;;;;;;;;;;;;;20.18;30.96;101524.38;5036217;28;721;-58
2021/01/21 10:18:39;;;;;;;;;;;;;;;20.06;31.06;101521.09;5051004;28;1135;-56
2021/01/21 10:21:04;;;;;;;;;;;;;;;19.40;32.34;101521.94;5056208;28;801;-54
2021/01/21 10:23:29;;;;;;;;;;;;;;;20.57;30.18;101514.59;5041132;28;1136;-56
2021/01/21 10:25:55;;;;;;;;;;;;;;;20.93;29.44;101511.69;5036403;28;737;-57
2021/01/21 10:28:20;;;;;;;;;;;;;;;20.40;30.36;101511.34;5036382;28;1909;-58
2021/01/21 10:30:49;;;;;;;;;;;;;;;20.16;30.75;101500.91;5036123;28;783;-58
2021/01/21 10:33:14;;;;;;;;;;;;;;;19.34;32.32;101493.53;5036513;28;768;-57
2021/01/21 10:35:39;;;;;;;;;;;;;;;20.45;30.34;101490.03;5036205;28;732;-58
2021/01/21 10:38:05;;;;;;;;;;;;;;;21.11;29.22;101481.72;5036011;28;995;-58
2021/01/21 10:40:30;;;;;;;;;;;;;;;20.44;30.32;101480.13;5052248;28;880;-60
2021/01/21 10:42:56;;;;;;;;;;;;;;;20.21;30.89;101475.25;5055641;28;828;-58
2021/01/21 10:45:21;;;;;;;;;;;;;;;19.37;32.12;101470.91;5055574;28;844;-57
2021/01/21 10:47:47;;;;;;;;;;;;;;;20.33;30.69;101471.03;5056634;28;1910;-60
2021/01/21 10:50:12;;;;;;;;;;;;;;;21.04;29.30;101465.44;5055619;28;776;-60
2021/01/21 10:52:38;;;;;;;;;;;;;;;20.29;30.54;101461.66;5047231;28;986;-61
2021/01/21 10:55:03;;;;;;;;;;;;;;;20.18;30.84;101455.34;5035651;28;768;-59
2021/01/21 10:57:29;;;;;;;;;;;;;;;19.62;31.84;101458.22;5036157;28;812;-60
2021/01/21 10:59:54;;;;;;;;;;;;;;;20.24;30.94;101447.88;5036186;28;859;-61
2021/01/21 11:02:19;;;;;;;;;;;;;;;21.07;29.29;101448.28;5036041;28;847;-58
2021/01/21 11:04:45;;;;;;;;;;;;;;;20.67;29.94;101444.63;5036288;28;860;-57
2021/01/21 11:07:10;;;;;;;;;;;;;;;20.35;30.79;101438.44;5046948;28;1915;-54
2021/01/21 11:09:36;;;;;;;;;;;;;;;19.69;31.96;101444.97;5038347;28;824;-54
2021/01/21 11:12:02;;;;;;;;;;;;;;;19.87;31.73;101432.53;5055713;28;828;-60
2021/01/21 11:14:28;;;;;;;;;;;;;;;20.87;30.08;101424.34;5056161;28;733;-59
2021/01/21 11:16:53;;;;;;;;;;;;;;;20.60;30.38;101427.56;5055579;28;847;-60
2021/01/21 11:19:18;;;;;;;;;;;;;;;20.48;30.34;101431.50;5055757;28;1246;-60
2021/01/21 11:21:44;;;;;;;;;;;;;;;19.87;31.35;101421.50;5053300;28;939;-59
2021/01/21 11:24:09;;;;;;;;;;;;;;;19.77;31.86;101419.56;5035397;28;1013;-58
2021/01/21 11:27:05;;;;;;;;;;;;;;;20.82;29.96;101413.34;5039771;28;1910;-59
2021/01/21 11:29:34;;;;;;;;;;;;;;;20.60;30.13;101408.22;5039236;28;784;-58
2021/01/21 11:31:59;;;;;;;;;;;;;;;20.32;30.79;101410.56;5039317;28;768;-59
2021/01/21 11:34:25;;;;;;;;;;;;;;;19.76;31.77;101406.88;5039838;28;816;-60
2021/01/21 11:36:51;;;;;;;;;;;;;;;19.72;32.01;101408.53;5039438;28;1006;-60
2021/01/21 11:39:16;;;;;;;;;;;;;;;20.80;30.01;101401.75;5045297;28;896;-57
2021/01/21 11:41:42;;;;;;;;;;;;;;;20.62;30.41;101401.28;5059071;28;832;-61
2021/01/21 11:44:07;;;;;;;;;;;;;;;20.36;30.76;101408.91;5059126;28;784;-59
2021/01/21 11:46:32;;;;;;;;;;;;;;;19.71;31.79;101395.03;5058879;28;1910;-58
2021/01/21 11:49:01;;;;;;;;;;;;;;;19.62;32.32;101392.00;5058779;28;768;-57
2021/01/21 11:51:27;;;;;;;;;;;;;;;20.58;30.54;101393.84;5058862;28;779;-59
2021/01/21 11:53:53;;;;;;;;;;;;;;;21.37;29.28;101391.88;5040619;28;951;-59
2021/01/21 11:56:18;;;;;;;;;;;;;;;21.65;28.62;101391.38;5039246;28;772;-59
2021/01/21 11:58:44;;;;;;;;;;;;;;;20.58;30.56;101388.31;5039225;28;760;-56
2021/01/21 12:01:09;;;;;;;;;;;;;;;20.48;30.45;101380.91;5039152;28;793;-54
2021/01/21 12:03:35;;;;;;;;;;;;;;;19.53;32.29;101382.66;5039269;28;749;-59
2021/01/21 12:06:01;;;;;;;;;;;;;;;20.24;31.21;101380.78;5039070;28;820;-57
2021/01/21 12:08:26;;;;;;;;;;;;;;;21.08;29.52;101377.22;5052633;28;1971;-57
2021/01/21 12:10:52;;;;;;;;;;;;;;;20.63;30.49;101378.06;5059229;28;915;-58
2021/01/21 12:13:17;;;;;;;;;;;;;;;20.25;30.88;101377.72;5058814;28;852;-61
2021/01/21 12:15:43;;;;;;;;;;;;;;;19.45;32.12;101379.34;5058642;28;854;-58
2021/01/21 12:18:08;;;;;;;;;;;;;;;20.26;30.87;101367.50;5058863;28;1135;-57
2021/01/21 12:20:34;;;;;;;;;;;;;;;21.08;29.61;101378.03;5059059;28;851;-58
2021/01/21 12:22:59;;;;;;;;;;;;;;;20.54;30.35;101378.94;5047901;28;975;-59
2021/01/21 12:25:24;;;;;;;;;;;;;;;20.32;30.91;101377.44;5038511;28;1041;-58
2021/01/21 12:28:02;;;;;;;;;;;;;;;19.59;31.97;101376.03;5038236;28;1979;-57
2021/01/21 12:30:27;;;;;;;;;;;;;;;20.15;31.24;101384.13;5038257;28;870;-58
2021/01/21 12:32:53;;;;;;;;;;;;;;;21.08;29.58;101383.56;5037897;28;807;-57
2021/01/21 12:35:18;;;;;;;;;;;;;;;20.78;29.94;101371.63;5037822;28;839;-58
2021/01/21 12:37:44;;;;;;;;;;;;;;;20.59;30.56;101381.69;5036975;28;1038;-59
2021/01/21 12:40:09;;;;;;;;;;;;;;;19.78;31.80;101368.81;5038303;28;776;-55
2021/01/21 12:42:35;;;;;;;;;;;;;;;20.12;31.34;101379.19;5038363;28;749;-56
2021/01/21 12:45:00;;;;;;;;;;;;;;;21.05;29.62;101372.28;5038200;28;812;-53
2021/01/21 12:47:26;;;;;;;;;;;;;;;20.83;30.11;101371.59;5038205;28;1922;-57
2021/01/21 12:49:51;;;;;;;;;;;;;;;20.47;30.46;101377.34;5038458;28;779;-60
2021/01/21 12:52:17;;;;;;;;;;;;;;;19.74;32.03;101377.91;5037688;28;1416;-55
2021/01/21 12:54:47;;;;;;;;;;;;;;;19.71;32.07;101378.47;5038081;28;864;-58
2021/01/21 12:57:25;;;;;;;;;;;;;;;20.82;30.00;101375.47;5038302;28;784;-60
2021/01/21 12:59:51;;;;;;;;;;;;;;;20.82;29.84;101366.38;5037846;28;784;-63
2021/01/21 13:02:17;;;;;;;;;;;;;;;20.38;30.81;101370.75;5069542;22;1738;-60
2021/01/21 13:04:42;;;;;;;;;;;;;;;19.89;31.50;101368.78;5060574;28;824;-57
2021/01/21 13:07:08;;;;;;;;;;;;;;;19.73;32.17;101365.22;5073860;28;1913;-54
2021/01/21 13:09:33;;;;;;;;;;;;;;;20.75;30.27;101372.22;5057692;28;791;-59
2021/01/21 13:11:59;;;;;;;;;;;;;;;20.88;29.96;101379.03;5057876;28;812;-59
2021/01/21 13:14:25;;;;;;;;;;;;;;;20.47;30.71;101374.56;5057341;28;839;-59
2021/01/21 13:16:50;;;;;;;;;;;;;;;20.17;31.22;101373.66;5058164;28;803;-58
2021/01/21 13:19:16;;;;;;;;;;;;;;;19.49;32.59;101372.19;5077251;28;1128;-56
2021/01/21 13:21:43;;;;;;;;;;;;;;;20.57;30.54;101372.88;5077236;28;815;-59
2021/01/21 13:24:08;;;;;;;;;;;;;;;21.10;29.78;101370.28;5057852;28;831;-60
2021/01/21 13:26:34;;;;;;;;;;;;;;;20.38;30.85;101369.94;5057665;28;1906;-62